Flugplatz Mengeringhausen (EDVG)

Hier findest Du alle Informationen zum Flugplatz Mengeringhausen (EDVG).

Informationen für Piloten zum Flugplatz Mengeringhausen

Hier findest Du alle relevanten Informationen, die Du als Pilot benötigst, um Mengeringhausen anzufliegen.

Flugplatz: Mengeringhausen ICAO-Code: EDVG
Frequenz Turm: 121,025 Mhz GAFOR Gebiet: 43
Frequenz Ground: 121,025 Mhz Mogas: nein
Platzrunde: SW 2000 ft Landegebühr: -
Platzhöhe: 1.190 ft Sunrise: 06:05 Uhr UTC
Pisten: 12/30 - 540 m x 30 m, GRAS Sunset: 17:06 Uhr UTC

Mitglieder, die in Mengeringhausen fliegen

Flugwetter am Flugplatz Mengeringhausen

Die METAR Information stammen aus EDVK (27.37 km entfernt).

METAR Code:
2024/01/27 12:20
EDVK 271220Z 22007KT 200V260 CAVOK 06/01 Q1035

Flugschulen am Flugplatz Mengeringhausen

Am Flugplatz Mengeringhausen gibt es eine Flugschule.

Flugschule Freeman Motorschirm Motorschirm-Trike

Benachbarte Flugplätze und Flugschulen

Es gibt 14 weitere Flugplätze in einem Umkreis von 50 km um den Flugplatz Mengeringhausen.

Jetzt anmelden

Passwort vergessen

Umfrage Archiv

Wie häufig haltet Ihr die Halbkreisflugregel ein?

Eher häufig!
34.9 %
Immer!
33 %
Hin und wieder!
15.3 %
Nie!
10 %
Eher selten!
6.7 %
Stimmen: 209 | Diskussion
Anzeige: Roland Aircraft
Statistik Alle Mitglieder

Aktuell sind 22 Besucher online, davon 2 Mitglieder und 20 Gäste.


Mitglieder online:
B.intheair  Maraio 

Anzeige: EasyVFR